createdAt,value
2022-12-03T00:02:21.500Z,-1.29
2022-12-03T00:04:48.238Z,-1.31
2022-12-03T00:07:14.952Z,-1.94
2022-12-03T00:09:41.592Z,-0.91
2022-12-03T00:12:08.752Z,-0.88
2022-12-03T00:14:37.810Z,-1.57
2022-12-03T00:17:08.067Z,-0.87
2022-12-03T00:19:34.909Z,-0.52
2022-12-03T00:22:01.670Z,-0.25
2022-12-03T00:24:28.304Z,-0.65
2022-12-03T00:26:55.152Z,-0.98
2022-12-03T00:29:21.842Z,-0.52
2022-12-03T00:31:48.537Z,-0.23
2022-12-03T00:34:15.223Z,-0.18
2022-12-03T00:36:41.903Z,-1.11
2022-12-03T00:39:08.540Z,-0.41
2022-12-03T00:41:36.145Z,-0.77
2022-12-03T00:44:03.367Z,-0.65
2022-12-03T00:46:30.100Z,-0.01
2022-12-03T00:48:56.787Z,-0.47
2022-12-03T00:51:23.604Z,-1.20
2022-12-03T00:53:50.325Z,-0.54
2022-12-03T00:56:17.091Z,-0.50
2022-12-03T00:58:43.791Z,0.03
2022-12-03T01:01:10.509Z,0.29
2022-12-03T01:03:37.836Z,0.26
2022-12-03T01:06:04.697Z,-1.21
2022-12-03T01:08:31.368Z,-0.48
2022-12-03T01:10:58.010Z,0.15
2022-12-03T01:13:24.685Z,-0.34
2022-12-03T01:15:51.479Z,-0.02
2022-12-03T01:18:18.164Z,0.18
2022-12-03T01:20:44.945Z,-0.31
2022-12-03T01:23:13.045Z,0.18
2022-12-03T01:25:39.740Z,0.44
2022-12-03T01:28:06.383Z,0.16
2022-12-03T01:30:53.439Z,-0.68
2022-12-03T01:33:20.230Z,-0.93
2022-12-03T01:35:46.851Z,-0.80
2022-12-03T01:38:14.172Z,-1.71
2022-12-03T01:40:41.045Z,-1.20
2022-12-03T01:43:07.721Z,-0.60
2022-12-03T01:45:34.356Z,-1.31
2022-12-03T01:48:01.175Z,-1.22
2022-12-03T01:50:33.065Z,-0.96
2022-12-03T01:53:03.061Z,-1.59
2022-12-03T01:55:30.440Z,-0.96
2022-12-03T01:58:00.735Z,-1.01
2022-12-03T02:00:29.819Z,-0.95
2022-12-03T02:03:12.230Z,-0.64
2022-12-03T02:05:39.085Z,-0.68
2022-12-03T02:08:32.229Z,-0.85
2022-12-03T02:11:06.499Z,-1.05
2022-12-03T02:13:33.415Z,-0.76
2022-12-03T02:16:00.152Z,-0.25
2022-12-03T02:18:27.008Z,-0.57
2022-12-03T02:21:10.207Z,-1.01
2022-12-03T02:24:12.688Z,-0.77
2022-12-03T02:26:39.446Z,-0.44
2022-12-03T02:29:06.128Z,-0.87
2022-12-03T02:31:33.165Z,-0.56
2022-12-03T02:33:59.882Z,-1.58
2022-12-03T02:36:27.067Z,-1.40
2022-12-03T02:38:53.822Z,-0.62
2022-12-03T02:41:40.089Z,-0.50
2022-12-03T02:44:08.194Z,-0.80
2022-12-03T02:46:35.776Z,-0.40
2022-12-03T02:49:05.184Z,-1.28
2022-12-03T02:51:33.600Z,-0.53
2022-12-03T02:54:00.808Z,-0.29
2022-12-03T02:56:31.095Z,-0.90
2022-12-03T02:59:02.999Z,-0.48
2022-12-03T03:01:29.918Z,-0.98
2022-12-03T03:03:57.488Z,-1.32
2022-12-03T03:06:24.765Z,-0.85
2022-12-03T03:08:52.234Z,-0.78
2022-12-03T03:11:18.975Z,-0.34
2022-12-03T03:13:46.272Z,0.37
2022-12-03T03:16:13.063Z,-0.57
2022-12-03T03:18:40.037Z,-0.47
2022-12-03T03:21:06.930Z,-0.15
2022-12-03T03:23:33.747Z,-0.39
2022-12-03T03:26:06.000Z,-0.85
2022-12-03T03:28:37.500Z,-1.16
2022-12-03T03:31:07.018Z,-1.29
2022-12-03T03:33:34.990Z,-2.31
2022-12-03T03:36:02.260Z,-2.43
2022-12-03T03:38:30.236Z,-1.31
2022-12-03T03:41:00.118Z,-1.86
2022-12-03T03:43:27.980Z,-1.22
2022-12-03T03:45:55.535Z,-0.59
2022-12-03T03:48:22.867Z,0.02
2022-12-03T03:50:50.882Z,0.13
2022-12-03T03:53:19.164Z,-1.16
2022-12-03T03:55:46.186Z,-0.37
2022-12-03T03:58:13.901Z,-0.90
2022-12-03T04:00:44.541Z,-0.84
2022-12-03T04:03:11.583Z,-0.32
2022-12-03T04:05:38.832Z,0.20
2022-12-03T04:08:05.698Z,-0.70
2022-12-03T04:10:50.947Z,-1.14
2022-12-03T04:13:17.705Z,-2.02
2022-12-03T04:15:44.349Z,-1.59
2022-12-03T04:18:29.588Z,-1.58
2022-12-03T04:21:16.204Z,-1.44
2022-12-03T04:23:42.949Z,-1.10
2022-12-03T04:26:28.328Z,-0.74
2022-12-03T04:28:55.357Z,-0.07
2022-12-03T04:31:40.621Z,-0.93
2022-12-03T04:34:27.106Z,-1.04
2022-12-03T04:36:55.216Z,-0.57
2022-12-03T04:39:21.926Z,-1.16
2022-12-03T04:41:48.617Z,-1.18
2022-12-03T04:44:33.119Z,-0.67
2022-12-03T04:47:01.031Z,-0.09
2022-12-03T04:49:27.843Z,0.57
2022-12-03T04:51:54.534Z,-0.42
2022-12-03T04:54:21.508Z,-0.88
2022-12-03T04:56:48.291Z,-0.24
2022-12-03T04:59:16.419Z,-0.39
2022-12-03T05:01:44.383Z,-0.68
2022-12-03T05:04:12.752Z,-0.98
2022-12-03T05:06:39.784Z,-0.85
2022-12-03T05:09:06.619Z,-0.91
2022-12-03T05:11:33.605Z,-1.16
2022-12-03T05:14:00.256Z,-2.05
2022-12-03T05:16:28.770Z,-0.93
2022-12-03T05:18:55.436Z,-0.61
2022-12-03T05:21:22.192Z,-1.20
2022-12-03T05:23:49.459Z,-0.02
2022-12-03T05:26:16.371Z,0.46
2022-12-03T05:28:43.000Z,0.58
2022-12-03T05:31:09.959Z,-0.10
2022-12-03T05:33:42.452Z,-0.32
2022-12-03T05:36:10.846Z,-0.05
2022-12-03T05:38:37.608Z,0.00
2022-12-03T05:41:25.146Z,0.03
2022-12-03T05:43:51.880Z,-0.11
2022-12-03T05:46:18.846Z,-0.89
2022-12-03T05:48:45.953Z,-0.37
2022-12-03T05:51:12.683Z,0.26
2022-12-03T05:53:39.375Z,-0.38
2022-12-03T05:56:06.462Z,-0.29
2022-12-03T05:58:33.259Z,-0.60
2022-12-03T06:00:59.920Z,-1.23
2022-12-03T06:03:27.188Z,-0.63
2022-12-03T06:05:53.968Z,-0.45
2022-12-03T06:08:20.662Z,-0.27
2022-12-03T06:10:47.411Z,-0.10
2022-12-03T06:13:14.108Z,-0.82
2022-12-03T06:15:43.901Z,-0.88
2022-12-03T06:18:11.767Z,-0.38
2022-12-03T06:20:38.467Z,-0.04
2022-12-03T06:23:05.355Z,-0.31
2022-12-03T06:25:32.017Z,-0.23
2022-12-03T06:27:58.676Z,-0.61
2022-12-03T06:30:25.279Z,-0.76
2022-12-03T06:32:52.805Z,-0.96
2022-12-03T06:35:19.535Z,-0.45
2022-12-03T06:37:49.053Z,-0.22
2022-12-03T06:40:16.721Z,-0.83
2022-12-03T06:42:43.805Z,-0.64
2022-12-03T06:45:12.005Z,-1.35
2022-12-03T06:47:38.687Z,-0.87
2022-12-03T06:50:07.372Z,-0.75
2022-12-03T06:52:34.951Z,-0.32
2022-12-03T06:55:01.693Z,-0.55
2022-12-03T06:57:28.496Z,0.32
2022-12-03T06:59:55.607Z,0.06
2022-12-03T07:02:22.556Z,-0.37
2022-12-03T07:04:49.239Z,-0.71
2022-12-03T07:07:15.962Z,-0.97
2022-12-03T07:09:43.279Z,-1.29
2022-12-03T07:12:10.043Z,-0.69
2022-12-03T07:14:37.132Z,0.13
2022-12-03T07:17:03.803Z,0.39
2022-12-03T07:19:32.862Z,0.11
2022-12-03T07:22:00.345Z,0.16
2022-12-03T07:24:27.567Z,0.43
2022-12-03T07:26:54.553Z,0.63
2022-12-03T07:29:21.369Z,0.76
2022-12-03T07:31:48.321Z,0.56
2022-12-03T07:34:15.084Z,0.61
2022-12-03T07:36:41.869Z,-0.19
2022-12-03T07:39:08.573Z,-0.01
2022-12-03T07:41:35.215Z,0.10
2022-12-03T07:44:01.878Z,-0.12
2022-12-03T07:46:28.727Z,0.47
2022-12-03T07:48:55.408Z,0.20
2022-12-03T07:51:24.183Z,0.88
2022-12-03T07:53:52.868Z,1.02
2022-12-03T07:56:19.491Z,0.42
2022-12-03T07:58:46.202Z,0.22
2022-12-03T08:01:13.206Z,0.07
2022-12-03T08:03:40.143Z,-0.48
2022-12-03T08:06:06.967Z,-0.20
2022-12-03T08:08:33.652Z,-0.12
2022-12-03T08:11:02.127Z,-0.14
2022-12-03T08:13:28.855Z,0.12
2022-12-03T08:16:00.201Z,0.40
2022-12-03T08:18:28.812Z,0.80
2022-12-03T08:20:55.477Z,0.97
2022-12-03T08:23:25.635Z,1.18
2022-12-03T08:25:53.364Z,0.88
2022-12-03T08:28:26.697Z,0.73
2022-12-03T08:31:12.632Z,0.32
2022-12-03T08:33:41.773Z,0.17
2022-12-03T08:36:31.189Z,0.13
2022-12-03T08:39:18.546Z,0.67
2022-12-03T08:42:05.956Z,1.28
2022-12-03T08:44:40.869Z,1.14
2022-12-03T08:47:19.525Z,-0.15
2022-12-03T08:50:01.277Z,-0.08
2022-12-03T08:52:34.134Z,0.08
2022-12-03T08:55:27.944Z,-0.01
2022-12-03T08:57:58.610Z,0.11
2022-12-03T09:00:25.582Z,0.83
2022-12-03T09:02:59.395Z,0.33
2022-12-03T09:05:32.272Z,0.51
2022-12-03T09:07:59.475Z,-0.06
2022-12-03T09:10:26.173Z,0.65
2022-12-03T09:12:53.195Z,-0.21
2022-12-03T09:15:20.030Z,-0.26
2022-12-03T09:17:49.977Z,-0.12
2022-12-03T09:20:16.795Z,0.27
2022-12-03T09:22:43.591Z,-0.11
2022-12-03T09:25:10.409Z,-0.52
2022-12-03T09:27:37.050Z,0.06
2022-12-03T09:30:05.385Z,0.68
2022-12-03T09:32:32.191Z,-0.05
2022-12-03T09:34:58.974Z,0.25
2022-12-03T09:37:25.753Z,-0.79
2022-12-03T09:39:52.428Z,-0.63
2022-12-03T09:42:19.214Z,-0.79
2022-12-03T09:44:46.083Z,0.50
2022-12-03T09:47:12.835Z,0.54
2022-12-03T09:49:40.834Z,0.07
2022-12-03T09:52:08.083Z,0.71
2022-12-03T09:54:35.322Z,1.04
2022-12-03T09:57:04.086Z,0.75
2022-12-03T09:59:34.282Z,0.85
2022-12-03T10:02:02.742Z,1.01
2022-12-03T10:04:30.238Z,1.30
2022-12-03T10:06:58.798Z,0.42
2022-12-03T10:09:30.288Z,1.02
2022-12-03T10:11:58.980Z,1.06
2022-12-03T10:14:26.421Z,1.15
2022-12-03T10:16:53.197Z,1.15
2022-12-03T10:19:29.284Z,0.79
2022-12-03T10:21:56.013Z,0.66
2022-12-03T10:24:32.517Z,0.39
2022-12-03T10:27:21.622Z,0.31
2022-12-03T10:30:00.937Z,-0.45
2022-12-03T10:32:39.740Z,-0.25
2022-12-03T10:35:14.203Z,-0.52
2022-12-03T10:38:02.484Z,-0.63
2022-12-03T10:40:35.689Z,-0.54
2022-12-03T10:43:25.508Z,-1.85
2022-12-03T10:46:12.714Z,-1.17
2022-12-03T10:48:39.474Z,-0.70
2022-12-03T10:51:21.007Z,-1.14
2022-12-03T10:53:49.668Z,-0.85
2022-12-03T10:56:26.117Z,-0.38
2022-12-03T10:58:53.160Z,0.27
2022-12-03T11:01:23.553Z,0.59
2022-12-03T11:03:51.269Z,0.39
2022-12-03T11:06:21.052Z,0.50
2022-12-03T11:08:58.523Z,0.77
2022-12-03T11:11:31.071Z,0.54
2022-12-03T11:14:02.737Z,0.78
2022-12-03T11:16:41.776Z,0.34
2022-12-03T11:19:47.105Z,0.73
2022-12-03T11:22:13.961Z,0.44
2022-12-03T11:24:40.885Z,0.93
2022-12-03T11:27:18.688Z,1.36
2022-12-03T11:29:59.064Z,0.90
2022-12-03T11:32:37.719Z,1.21
2022-12-03T11:35:34.898Z,0.80
2022-12-03T11:38:40.788Z,1.00
2022-12-03T11:41:19.682Z,0.30
2022-12-03T11:43:52.468Z,-0.09
2022-12-03T11:46:21.470Z,0.38
2022-12-03T11:48:53.084Z,-0.01
2022-12-03T11:51:24.637Z,0.47
2022-12-03T11:53:53.923Z,0.80
2022-12-03T11:56:24.929Z,0.53
2022-12-03T11:59:03.734Z,0.84
2022-12-03T12:01:40.070Z,0.10
2022-12-03T12:04:31.220Z,0.40
2022-12-03T12:06:58.138Z,0.69
2022-12-03T12:09:55.156Z,1.00
2022-12-03T12:12:45.617Z,0.48
2022-12-03T12:15:43.020Z,1.24
2022-12-03T12:18:45.604Z,0.81
2022-12-03T12:21:47.660Z,1.40
2022-12-03T12:24:45.666Z,1.86
2022-12-03T12:27:45.001Z,1.62
2022-12-03T12:30:20.513Z,0.74
2022-12-03T12:32:53.383Z,0.49
2022-12-03T12:35:27.313Z,0.65
2022-12-03T12:38:17.134Z,0.88
2022-12-03T12:40:49.227Z,0.86
2022-12-03T12:43:25.047Z,1.93
2022-12-03T12:45:57.019Z,1.08
2022-12-03T12:48:34.357Z,1.28
2022-12-03T12:51:18.708Z,1.16
2022-12-03T12:53:45.872Z,0.89
2022-12-03T12:56:29.962Z,0.64
2022-12-03T12:59:06.413Z,0.89
2022-12-03T13:01:35.484Z,0.39
2022-12-03T13:04:10.254Z,0.82
2022-12-03T13:06:37.097Z,0.38
2022-12-03T13:09:03.877Z,0.38
2022-12-03T13:11:44.106Z,0.09
2022-12-03T13:14:23.798Z,0.45
2022-12-03T13:16:54.610Z,0.42
2022-12-03T13:19:30.349Z,0.66
2022-12-03T13:22:01.891Z,0.73
2022-12-03T13:24:38.137Z,1.08
2022-12-03T13:27:14.008Z,0.46
2022-12-03T13:29:40.652Z,1.04
2022-12-03T13:32:33.169Z,1.38
2022-12-03T13:35:31.356Z,0.65
2022-12-03T13:37:59.156Z,0.55
2022-12-03T13:40:31.346Z,-0.33
2022-12-03T13:42:59.357Z,0.42
2022-12-03T13:45:31.896Z,0.58
2022-12-03T13:48:02.764Z,0.91
2022-12-03T13:50:46.114Z,0.80
2022-12-03T13:53:27.853Z,0.82
2022-12-03T13:56:14.555Z,0.86
2022-12-03T13:58:41.381Z,1.35
2022-12-03T14:01:08.039Z,1.90
2022-12-03T14:03:35.350Z,1.71
2022-12-03T14:06:02.062Z,0.98
2022-12-03T14:08:29.847Z,0.82
2022-12-03T14:11:00.354Z,1.49
2022-12-03T14:13:27.510Z,1.28
2022-12-03T14:15:54.173Z,1.06
2022-12-03T14:18:20.854Z,1.11
2022-12-03T14:20:48.233Z,0.73
2022-12-03T14:23:15.423Z,1.21
2022-12-03T14:25:43.921Z,1.36
2022-12-03T14:28:11.090Z,1.24
2022-12-03T14:30:37.785Z,0.89
2022-12-03T14:33:04.566Z,0.03
2022-12-03T14:35:31.206Z,0.18
2022-12-03T14:37:57.862Z,0.47
2022-12-03T14:40:24.528Z,-0.03
2022-12-03T14:42:51.189Z,-0.32
2022-12-03T14:45:17.857Z,0.10
2022-12-03T14:47:44.628Z,0.90
2022-12-03T14:50:14.338Z,1.01
2022-12-03T14:52:41.454Z,1.27
2022-12-03T14:55:08.757Z,1.16
2022-12-03T14:57:36.972Z,1.34
2022-12-03T15:00:06.261Z,1.58
2022-12-03T15:02:33.210Z,1.28
2022-12-03T15:04:59.972Z,1.97
2022-12-03T15:07:26.786Z,1.81
2022-12-03T15:09:53.847Z,1.47
2022-12-03T15:12:20.849Z,1.49
2022-12-03T15:14:47.563Z,1.67
2022-12-03T15:17:14.493Z,1.42
2022-12-03T15:19:41.616Z,0.82
2022-12-03T15:22:11.537Z,1.12
2022-12-03T15:24:38.358Z,0.96
2022-12-03T15:27:05.087Z,1.17
2022-12-03T15:29:32.897Z,1.34
2022-12-03T15:32:00.918Z,1.01
2022-12-03T15:34:27.714Z,0.27
2022-12-03T15:36:54.604Z,0.59
2022-12-03T15:39:22.123Z,0.57
2022-12-03T15:41:49.023Z,0.55
2022-12-03T15:44:15.943Z,0.73
2022-12-03T15:46:42.729Z,1.18
2022-12-03T15:49:09.495Z,0.82
2022-12-03T15:51:36.168Z,0.37
2022-12-03T15:54:02.971Z,1.14
2022-12-03T15:56:29.634Z,0.56
2022-12-03T15:58:57.111Z,0.91
2022-12-03T16:01:23.974Z,0.79
2022-12-03T16:03:50.739Z,0.61
2022-12-03T16:06:19.528Z,0.82
2022-12-03T16:08:46.299Z,1.03
2022-12-03T16:11:12.977Z,1.34
2022-12-03T16:13:39.683Z,-0.48
2022-12-03T16:16:06.656Z,0.25
2022-12-03T16:18:33.564Z,0.88
2022-12-03T16:21:00.455Z,1.44
2022-12-03T16:23:27.293Z,0.90
2022-12-03T16:25:53.906Z,0.62
2022-12-03T16:28:20.663Z,0.47
2022-12-03T16:30:47.394Z,1.08
2022-12-03T16:33:14.059Z,1.25
2022-12-03T16:35:40.720Z,-0.24
2022-12-03T16:38:10.195Z,0.87
2022-12-03T16:40:36.852Z,1.01
2022-12-03T16:43:04.822Z,-0.10
2022-12-03T16:46:03.638Z,0.11
2022-12-03T16:48:30.456Z,0.62
2022-12-03T16:50:59.141Z,0.64
2022-12-03T16:53:26.064Z,1.72
2022-12-03T16:55:52.803Z,0.81
2022-12-03T16:58:21.226Z,1.28
2022-12-03T17:00:49.001Z,0.25
2022-12-03T17:03:17.762Z,0.65
2022-12-03T17:05:45.719Z,1.15
2022-12-03T17:08:13.425Z,0.98
2022-12-03T17:10:40.338Z,1.11
2022-12-03T17:13:09.972Z,1.21
2022-12-03T17:15:37.922Z,1.05
2022-12-03T17:18:05.174Z,1.50
2022-12-03T17:20:32.793Z,2.14
2022-12-03T17:22:59.947Z,1.81
2022-12-03T17:25:27.855Z,1.44
2022-12-03T17:27:54.711Z,1.69
2022-12-03T17:30:21.550Z,1.25
2022-12-03T17:32:50.228Z,1.25
2022-12-03T17:35:17.513Z,1.52
2022-12-03T17:37:44.308Z,1.34
2022-12-03T17:40:13.837Z,1.98
2022-12-03T17:42:40.500Z,1.84
2022-12-03T17:45:08.160Z,1.46
2022-12-03T17:47:34.893Z,1.21
2022-12-03T17:50:01.903Z,1.67
2022-12-03T17:52:28.640Z,1.69
2022-12-03T17:55:10.802Z,1.71
2022-12-03T17:57:38.815Z,1.47
2022-12-03T18:00:06.491Z,1.23
2022-12-03T18:02:38.858Z,0.89
2022-12-03T18:05:06.272Z,0.14
2022-12-03T18:07:33.128Z,0.85
2022-12-03T18:10:00.035Z,0.85
2022-12-03T18:12:26.908Z,1.16
2022-12-03T18:14:53.818Z,1.49
2022-12-03T18:17:20.541Z,1.02
2022-12-03T18:19:47.310Z,1.08
2022-12-03T18:22:14.237Z,1.14
2022-12-03T18:24:41.212Z,1.21
2022-12-03T18:27:08.178Z,1.18
2022-12-03T18:29:35.020Z,1.47
2022-12-03T18:32:01.950Z,1.55
2022-12-03T18:34:28.847Z,1.65
2022-12-03T18:36:55.692Z,1.83
2022-12-03T18:39:31.380Z,1.72
2022-12-03T18:41:59.150Z,1.69
2022-12-03T18:44:26.067Z,1.36
2022-12-03T18:46:54.265Z,1.25
2022-12-03T18:49:21.678Z,1.57
2022-12-03T18:51:49.309Z,1.25
2022-12-03T18:54:17.240Z,1.26
2022-12-03T18:56:43.962Z,1.60
2022-12-03T18:59:11.385Z,1.40
2022-12-03T19:01:38.339Z,1.25
2022-12-03T19:04:05.179Z,1.10
2022-12-03T19:06:32.253Z,1.43
2022-12-03T19:08:59.085Z,1.50
2022-12-03T19:11:25.813Z,1.82
2022-12-03T19:13:52.632Z,1.98
2022-12-03T19:16:19.603Z,1.29
2022-12-03T19:18:46.348Z,0.89
2022-12-03T19:21:16.872Z,0.95
2022-12-03T19:24:04.294Z,0.34
2022-12-03T19:26:30.893Z,0.96
2022-12-03T19:28:57.583Z,0.97
2022-12-03T19:31:24.339Z,1.24
2022-12-03T19:33:51.760Z,1.42
2022-12-03T19:36:30.657Z,0.70
2022-12-03T19:38:59.525Z,-0.07
2022-12-03T19:41:30.425Z,1.34
2022-12-03T19:43:58.014Z,1.53
2022-12-03T19:46:28.665Z,1.10
2022-12-03T19:48:55.580Z,1.07
2022-12-03T19:51:37.223Z,0.96
2022-12-03T19:54:06.954Z,0.55
2022-12-03T19:56:34.524Z,1.46
2022-12-03T19:59:01.442Z,0.10
2022-12-03T20:01:32.431Z,0.40
2022-12-03T20:04:01.275Z,1.30
2022-12-03T20:06:32.496Z,1.91
2022-12-03T20:09:11.228Z,1.68
2022-12-03T20:11:40.045Z,1.80
2022-12-03T20:14:10.978Z,1.13
2022-12-03T20:16:37.816Z,1.25
2022-12-03T20:19:07.664Z,1.64
2022-12-03T20:21:36.397Z,1.25
2022-12-03T20:24:03.688Z,1.17
2022-12-03T20:26:30.511Z,0.76
2022-12-03T20:28:58.114Z,0.92
2022-12-03T20:31:28.779Z,1.58
2022-12-03T20:33:59.800Z,1.17
2022-12-03T20:36:28.622Z,1.31
2022-12-03T20:38:57.717Z,1.01
2022-12-03T20:41:25.097Z,0.51
2022-12-03T20:43:53.259Z,0.55
2022-12-03T20:46:27.041Z,0.74
2022-12-03T20:48:55.168Z,0.99
2022-12-03T20:51:25.602Z,1.14
2022-12-03T20:53:52.987Z,1.03
2022-12-03T20:56:27.007Z,0.68
2022-12-03T20:58:54.043Z,1.19
2022-12-03T21:01:24.940Z,1.11
2022-12-03T21:03:54.161Z,1.21
2022-12-03T21:06:22.405Z,1.68
2022-12-03T21:08:49.215Z,1.81
2022-12-03T21:11:26.280Z,1.25
2022-12-03T21:13:54.551Z,0.89
2022-12-03T21:16:39.757Z,1.10
2022-12-03T21:19:12.049Z,0.85
2022-12-03T21:21:39.047Z,0.26
2022-12-03T21:24:06.210Z,0.98
2022-12-03T21:26:33.546Z,0.93
2022-12-03T21:29:00.328Z,0.65
2022-12-03T21:31:27.449Z,0.46
2022-12-03T21:33:56.252Z,1.39
2022-12-03T21:36:24.709Z,1.46
2022-12-03T21:38:52.096Z,1.30
2022-12-03T21:41:19.385Z,1.15
2022-12-03T21:43:46.503Z,0.78
2022-12-03T21:47:10.471Z,0.74
2022-12-03T21:49:03.956Z,0.65
2022-12-03T21:51:30.725Z,0.76
2022-12-03T21:53:57.467Z,0.15
2022-12-03T21:56:24.382Z,-0.33
2022-12-03T21:58:51.175Z,-0.29
2022-12-03T22:01:21.361Z,-0.72
2022-12-03T22:03:49.114Z,-0.63
2022-12-03T22:06:16.702Z,-0.07
2022-12-03T22:08:44.078Z,0.70
2022-12-03T22:11:17.305Z,0.59
2022-12-03T22:13:45.715Z,-0.31
2022-12-03T22:16:19.530Z,0.25
2022-12-03T22:18:46.833Z,0.37
2022-12-03T22:21:17.616Z,0.84
2022-12-03T22:23:45.370Z,0.44
2022-12-03T22:26:15.451Z,1.06
2022-12-03T22:28:47.492Z,1.47
2022-12-03T22:31:15.782Z,0.65
2022-12-03T22:33:45.512Z,0.73
2022-12-03T22:36:20.163Z,0.41
2022-12-03T22:38:48.819Z,0.47
2022-12-03T22:41:15.937Z,0.78
2022-12-03T22:43:43.293Z,0.28
2022-12-03T22:46:12.370Z,-0.11
2022-12-03T22:48:41.729Z,-0.53
2022-12-03T22:51:21.715Z,-0.07
2022-12-03T22:53:57.598Z,-0.37
2022-12-03T22:56:25.379Z,0.36
2022-12-03T22:58:52.391Z,0.04
2022-12-03T23:01:26.208Z,0.89
2022-12-03T23:03:53.372Z,0.90
2022-12-03T23:06:20.449Z,0.11
2022-12-03T23:08:47.736Z,0.46
2022-12-03T23:11:15.572Z,-0.87
2022-12-03T23:13:42.743Z,0.12
2022-12-03T23:16:15.734Z,0.50
2022-12-03T23:18:42.693Z,0.37
2022-12-03T23:21:09.791Z,0.46
2022-12-03T23:23:36.465Z,0.80
2022-12-03T23:26:07.551Z,0.50
2022-12-03T23:28:37.601Z,0.57
2022-12-03T23:31:05.524Z,0.89
2022-12-03T23:33:37.984Z,0.55
2022-12-03T23:36:06.684Z,1.12
2022-12-03T23:38:33.614Z,0.59
2022-12-03T23:41:05.788Z,0.82
2022-12-03T23:43:32.509Z,1.21
2022-12-03T23:46:08.780Z,1.34
2022-12-03T23:48:36.030Z,1.30
2022-12-03T23:51:24.110Z,0.74
2022-12-03T23:53:53.357Z,0.76
2022-12-03T23:56:25.404Z,1.02
2022-12-03T23:58:52.206Z,1.54
